Time;durP1;ratioP1;P1;durP2;ratioP2;P2;SDS_P1;SDS_P2;PMS_P1;PMS_P2;Temp;Humidity;BMP_temperature;BMP_pressure;BME280_temperature;BME280_humidity;BME280_pressure;Samples;Min_cycle;Max_cycle;Signal;HPM_P1;HPM_P2
2022/06/03 00:00:23;;;;;;;9.57;7.70;;;11.10;99.90;;;10.95;76.96;101693.22;4972455;28;20449;-69
2022/06/03 00:03:40;;;;;;;9.90;8.23;;;11.00;99.90;;;10.96;76.65;101694.91;5000412;28;20461;-70
2022/06/03 00:06:32;;;;;;;10.93;9.03;;;11.00;99.90;;;10.93;76.82;101698.00;5041639;22;20478;-71
2022/06/03 00:09:56;;;;;;;9.80;8.40;;;11.00;99.90;;;10.96;76.94;101700.31;5035874;28;20481;-71
2022/06/03 00:12:46;;;;;;;11.10;8.30;;;11.00;99.90;;;10.88;77.38;101696.69;5026227;28;20510;-71
2022/06/03 00:15:37;;;;;;;13.90;8.23;;;11.00;99.90;;;10.78;78.01;101700.69;5029356;28;20442;-70
2022/06/03 00:19:14;;;;;;;12.33;9.00;;;10.90;99.90;;;10.79;78.10;101696.97;5024102;28;20511;-72
2022/06/03 00:22:15;;;;;;;9.97;8.67;;;10.90;99.90;;;10.72;78.16;101696.84;5026329;28;21017;-72
2022/06/03 00:25:06;;;;;;;11.30;8.67;;;10.90;99.90;;;10.75;77.91;101691.03;5035557;28;20494;-70
2022/06/03 00:28:20;;;;;;;9.50;8.53;;;10.90;99.90;;;10.62;78.13;101690.84;5027242;28;20443;-70
2022/06/03 00:31:12;;;;;;;11.83;8.43;;;10.80;99.90;;;10.58;78.54;101694.94;5013994;28;20457;-72
2022/06/03 00:34:15;;;;;;;12.73;8.63;;;10.80;99.90;;;10.47;78.63;101692.66;5026841;28;20842;-71
2022/06/03 00:37:09;;;;;;;8.43;7.10;;;10.70;99.90;;;10.52;78.99;101687.53;5029118;28;20450;-71
2022/06/03 00:40:08;;;;;;;10.63;8.40;;;10.70;99.90;;;10.46;79.53;101689.13;5022129;28;20448;-72
2022/06/03 00:43:01;;;;;;;14.30;9.13;;;10.70;99.90;;;10.48;79.25;101688.09;5032742;28;20495;-73
2022/06/03 00:45:46;;;;;;;13.70;9.57;;;10.60;99.90;;;10.41;79.65;101688.81;5033668;28;20472;-73
2022/06/03 00:48:43;;;;;;;10.65;7.63;;;10.60;99.90;;;10.41;79.86;101682.56;5023691;28;20439;-71
2022/06/03 00:51:49;;;;;;;19.23;7.57;;;10.60;99.90;;;10.52;79.68;101681.28;5026538;28;20291;-73
2022/06/03 00:55:13;;;;;;;12.63;10.33;;;10.60;1.00;;;10.57;79.58;101690.56;5025734;28;20864;-70
2022/06/03 00:58:38;;;;;;;9.43;7.90;;;10.70;1.00;;;10.58;79.28;101683.28;5000247;28;21070;-70
2022/06/03 01:01:14;;;;;;;21.60;14.97;;;10.70;1.00;;;10.47;79.61;101681.84;5014282;28;20483;-71
2022/06/03 01:04:09;;;;;;;24.37;17.30;;;10.60;99.90;;;10.59;78.94;101674.97;5029478;28;20430;-72
2022/06/03 01:06:55;;;;;;;21.90;15.83;;;10.60;99.90;;;10.52;79.12;101681.28;5025023;28;20443;-71
2022/06/03 01:09:51;;;;;;;20.10;16.30;;;10.60;99.90;;;10.48;79.13;101683.53;5029759;28;20518;-72
2022/06/03 01:12:50;;;;;;;22.07;19.73;;;10.60;99.90;;;10.36;79.15;101679.59;5024073;28;20808;-71
2022/06/03 01:15:34;;;;;;;19.10;15.55;;;10.50;99.90;;;10.32;79.59;101683.66;5025050;28;20483;-71
2022/06/03 01:18:23;;;;;;;28.83;21.33;;;10.50;99.90;;;10.29;79.63;101692.13;5025130;28;20193;-69
2022/06/03 01:21:11;;;;;;;22.40;19.67;;;10.50;99.90;;;10.21;80.15;101689.50;5018002;28;20546;-73
2022/06/03 01:24:25;;;;;;;21.13;18.60;;;10.40;1.00;;;10.09;80.48;101696.31;5028029;28;20543;-71
2022/06/03 01:27:50;;;;;;;19.73;16.70;;;10.30;1.00;;;10.30;80.64;101685.72;5023615;28;20472;-73
2022/06/03 01:30:29;;;;;;;27.48;20.17;;;10.40;1.00;;;10.15;80.75;101682.06;5000815;28;20583;-69
2022/06/03 01:33:28;;;;;;;27.03;21.13;;;10.30;1.00;;;10.26;80.92;101689.81;5030536;28;20197;-73
2022/06/03 01:36:30;;;;;;;24.77;19.27;;;10.30;1.00;;;10.22;80.79;101688.47;5028623;28;20478;-73
2022/06/03 01:40:02;;;;;;;24.08;19.77;;;10.40;1.00;;;10.27;81.21;101686.06;5028169;28;20940;-71
2022/06/03 01:43:20;;;;;;;44.90;34.27;;;10.30;1.00;;;10.29;80.69;101689.44;5024048;28;20243;-72
2022/06/03 01:46:27;;;;;;;89.38;68.15;;;10.40;1.00;;;10.17;80.77;101685.47;5026997;28;20483;-72
2022/06/03 01:49:46;;;;;;;55.42;41.15;;;10.30;1.00;;;10.42;80.94;101684.25;5022429;28;20205;-72
2022/06/03 01:53:00;;;;;;;63.13;48.88;;;10.40;1.00;;;10.27;80.14;101686.06;5025144;28;20209;-73
2022/06/03 01:56:22;;;;;;;56.50;43.50;;;10.40;1.00;;;10.11;80.60;101692.44;5028689;28;20201;-72
2022/06/03 01:59:45;;;;;;;81.70;58.75;;;10.30;1.00;;;10.03;81.38;101685.19;5046692;28;20713;-72
2022/06/03 02:02:55;;;;;;;107.03;83.50;;;10.20;1.00;;;9.96;80.88;101673.44;5029541;28;20595;-71
2022/06/03 02:06:25;;;;;;;98.90;79.35;;;10.10;1.00;;;10.09;80.90;101677.38;5029376;28;20201;-72
2022/06/03 02:10:18;;;;;;;104.70;81.47;;;10.10;1.00;;;9.83;81.05;101678.56;5031769;28;20197;-70
2022/06/03 02:13:33;;;;;;;97.60;70.75;;;10.00;1.00;;;10.00;81.24;101679.31;4913472;28;20329;-71
2022/06/03 02:16:45;;;;;;;101.07;72.55;;;10.10;51.30;;;9.76;81.29;101682.16;4970519;28;20199;-71
2022/06/03 02:19:56;;;;;;;73.68;57.78;;;10.00;1.00;;;9.71;81.88;101680.00;5026710;28;20211;-74
2022/06/03 02:23:20;;;;;;;68.82;54.28;;;9.90;1.00;;;9.71;81.25;101681.84;5032440;28;20233;-72
2022/06/03 02:26:23;;;;;;;63.22;45.92;;;9.90;1.00;;;9.56;81.46;101682.59;5028109;28;20588;-71
2022/06/03 02:33:32;;;;;;;47.17;38.08;;;9.80;99.90;;;9.74;81.66;101685.03;4964192;28;20683;-71
2022/06/03 02:36:44;;;;;;;42.45;35.03;;;9.80;99.90;;;9.94;81.16;101691.69;5029094;28;20465;-71
2022/06/03 02:39:51;;;;;;;46.70;33.92;;;9.90;99.90;;;9.80;81.27;101687.03;5030182;28;20190;-71
2022/06/03 02:43:19;;;;;;;50.55;42.22;;;9.90;26.00;;;9.59;81.94;101681.41;5031295;28;20687;-72
2022/06/03 02:46:32;;;;;;;30.52;25.75;;;9.80;99.90;;;9.56;82.31;101687.16;4977288;28;20281;-70
2022/06/03 02:49:57;;;;;;;27.60;22.45;;;9.70;99.90;;;9.70;81.59;101683.72;4969132;28;20269;-70
2022/06/03 02:53:31;;;;;;;21.85;18.35;;;9.80;99.90;;;9.69;80.75;101686.56;5031726;28;20723;-71
2022/06/03 02:56:48;;;;;;;17.27;13.50;;;9.80;1.00;;;9.70;80.62;101678.31;5022557;28;20209;-73
2022/06/03 03:00:10;;;;;;;13.43;11.65;;;9.80;1.00;;;9.68;80.93;101685.75;5028353;28;20205;-72
2022/06/03 03:03:17;;;;;;;11.98;10.73;;;9.80;1.00;;;9.80;80.66;101678.91;4969061;28;20223;-71
2022/06/03 03:06:26;;;;;;;17.67;10.15;;;9.80;1.00;;;9.95;79.75;101674.44;4954759;28;20286;-71
2022/06/03 03:09:33;;;;;;;8.18;7.43;;;9.90;1.00;;;10.06;78.68;101675.06;5029902;28;20702;-71
2022/06/03 03:12:56;;;;;;;9.98;7.13;;;10.00;99.90;;;10.02;78.67;101669.97;5029120;28;20648;-72
2022/06/03 03:16:24;;;;;;;10.65;7.05;;;10.00;99.90;;;10.02;78.44;101671.88;5031903;28;20244;-71
2022/06/03 03:19:52;;;;;;;10.38;9.02;;;10.00;99.90;;;9.89;78.79;101683.25;5027832;28;20189;-73
2022/06/03 03:22:50;;;;;;;7.85;7.05;;;10.00;99.90;;;9.93;78.86;101684.56;5022685;28;20295;-73
2022/06/03 03:25:53;;;;;;;8.80;7.20;;;9.90;99.90;;;9.91;78.81;101683.09;5031286;28;20276;-73
2022/06/03 03:29:18;;;;;;;13.93;8.73;;;9.90;99.90;;;9.90;78.86;101689.50;5017762;28;20671;-70
2022/06/03 03:32:40;;;;;;;10.32;6.80;;;9.90;99.90;;;10.19;78.32;101691.53;5030839;28;20304;-73
2022/06/03 03:35:44;;;;;;;9.55;7.45;;;10.00;99.90;;;10.55;77.49;101695.31;4975756;28;20233;-73
2022/06/03 03:39:15;;;;;;;9.18;7.38;;;10.20;99.90;;;12.60;71.35;101695.03;5023862;28;20255;-73
2022/06/03 03:42:30;;;;;;;9.20;7.30;;;10.80;99.90;;;15.23;62.20;101679.53;5010189;28;20281;-71
2022/06/03 03:45:45;;;;;;;10.30;7.40;;;12.10;63.10;;;16.60;56.86;101687.28;5028953;28;20892;-72
2022/06/03 03:49:03;;;;;;;7.50;6.80;;;13.10;14.30;;;16.95;54.88;101676.63;5028740;28;20535;-71
2022/06/03 03:52:14;;;;;;;11.03;7.40;;;14.10;1.00;;;17.21;54.92;101686.47;5024255;28;20565;-73
2022/06/03 03:55:32;;;;;;;10.03;7.80;;;14.40;1.00;;;17.83;53.47;101688.06;5030316;28;20522;-71
2022/06/03 03:59:02;;;;;;;9.53;7.33;;;14.80;1.00;;;18.29;51.53;101695.63;5034473;28;20432;-71
2022/06/03 04:02:21;;;;;;;10.87;7.57;;;15.10;1.00;;;17.97;52.37;101691.44;5029867;28;20513;-70
2022/06/03 04:05:38;;;;;;;10.47;7.33;;;15.40;1.00;;;18.72;50.94;101692.66;5021057;28;20539;-72
2022/06/03 04:08:35;;;;;;;10.57;8.43;;;15.60;1.00;;;19.20;49.83;101695.16;5025434;28;20854;-72
2022/06/03 04:11:54;;;;;;;8.43;7.63;;;16.00;1.00;;;18.83;50.42;101688.28;5027641;28;20475;-72
2022/06/03 04:15:07;;;;;;;10.17;8.03;;;16.00;1.00;;;20.15;47.91;101697.44;5014927;28;20427;-73
2022/06/03 04:18:24;;;;;;;12.53;7.97;;;16.70;1.00;;;20.40;47.03;101697.94;5030611;28;20470;-71
2022/06/03 04:21:46;;;;;;;10.20;8.20;;;17.10;1.00;;;19.71;48.54;101705.34;5024301;28;20464;-71
2022/06/03 04:25:12;;;;;;;11.30;9.87;;;16.80;1.00;;;20.65;46.75;101700.28;5030489;28;20802;-72
2022/06/03 04:28:52;;;;;;;11.40;8.90;;;17.10;1.00;;;21.57;44.36;101701.44;5029385;28;20451;-72
2022/06/03 04:32:19;;;;;;;9.83;8.90;;;17.40;1.00;;;22.36;42.90;101699.06;4952184;28;20453;-75
2022/06/03 04:35:42;;;;;;;12.00;10.80;;;18.00;1.00;;;21.76;43.53;101704.69;4936171;28;20423;-73
2022/06/03 04:39:02;;;;;;;11.67;9.60;;;17.70;1.00;;;21.72;43.49;101703.56;5027037;28;20470;-76
2022/06/03 04:42:41;;;;;;;14.93;10.70;;;17.70;1.00;;;22.22;42.52;101697.78;5027321;28;20542;-73
2022/06/03 04:46:03;;;;;;;12.93;11.03;;;18.10;1.00;;;22.21;42.88;101706.34;4963439;28;20534;-73
2022/06/03 04:49:42;;;;;;;16.70;11.57;;;18.40;1.00;;;22.60;42.04;101705.06;4963405;28;20457;-73
2022/06/03 04:53:22;;;;;;;13.93;12.43;;;18.50;1.00;;;22.68;41.91;101704.59;5024660;28;21039;-72
2022/06/03 04:56:57;;;;;;;14.50;11.00;;;18.80;1.00;;;23.22;40.82;101707.22;5009678;28;20418;-71
2022/06/03 05:00:18;;;;;;;16.57;12.37;;;19.10;1.00;;;22.86;41.34;101717.16;5024353;28;20503;-72
2022/06/03 05:03:52;;;;;;;13.13;11.73;;;19.10;1.00;;;23.22;40.75;101715.50;5023803;28;20461;-72
2022/06/03 05:07:20;;;;;;;16.00;12.07;;;19.20;1.00;;;23.22;41.15;101715.50;5024662;28;20427;-72
2022/06/03 05:10:51;;;;;;;16.07;12.30;;;19.30;1.00;;;23.64;40.82;101709.94;5025032;28;20923;-73
2022/06/03 05:14:07;;;;;;;11.33;10.17;;;19.40;1.00;;;23.66;40.37;101718.81;5022065;28;20472;-71
2022/06/03 05:17:36;;;;;;;12.93;10.23;;;19.90;1.00;;;24.15;39.02;101716.50;5019307;28;20497;-72
2022/06/03 05:21:06;;;;;;;11.53;9.90;;;20.20;1.00;;;24.69;37.29;101722.41;4994479;28;20456;-73
2022/06/03 05:24:24;;;;;;;8.60;7.70;;;20.30;1.00;;;24.72;36.99;101727.41;5028674;28;20439;-71
2022/06/03 05:27:58;;;;;;;7.90;6.80;;;20.90;1.00;;;24.62;36.47;101724.63;4955567;28;20448;-71
2022/06/03 05:31:09;;;;;;;8.23;7.00;;;20.80;1.00;;;25.16;35.83;101722.13;5028754;28;20451;-72
2022/06/03 05:34:12;;;;;;;7.47;6.20;;;20.70;1.00;;;22.42;39.87;101727.50;5018867;28;20505;-72
2022/06/03 05:37:36;;;;;;;4.73;4.33;;;20.30;1.00;;;19.88;44.11;101727.41;5028916;28;20443;-74
2022/06/03 05:40:35;;;;;;;6.00;4.53;;;19.30;1.00;;;18.47;47.24;101728.44;5028238;28;20963;-72
2022/06/03 05:43:53;;;;;;;6.97;4.97;;;18.30;1.00;;;17.84;49.82;101729.97;5023617;28;20505;-73
2022/06/03 05:46:40;;;;;;;5.23;4.47;;;17.80;1.00;;;17.84;48.56;101727.22;5025948;28;20849;-72
2022/06/03 05:49:33;;;;;;;3.97;3.60;;;17.60;1.00;;;17.54;49.07;101727.97;5028941;28;20422;-73
2022/06/03 05:52:37;;;;;;;6.10;3.80;;;17.40;1.00;;;17.34;50.02;101721.88;5025132;28;20958;-74
2022/06/03 05:55:23;;;;;;;4.50;4.10;;;17.10;1.00;;;17.42;50.44;101718.88;5024428;28;20410;-74
2022/06/03 05:58:08;;;;;;;4.57;4.10;;;17.10;1.00;;;17.46;50.48;101720.06;5029389;28;20519;-74
2022/06/03 06:00:54;;;;;;;5.70;4.20;;;17.20;1.00;;;17.61;49.97;101720.56;5015626;28;20478;-74
2022/06/03 06:03:40;;;;;;;6.10;5.00;;;17.30;1.00;;;17.63;50.38;101714.84;5024300;28;20913;-72
2022/06/03 06:06:28;;;;;;;4.30;3.83;;;17.30;1.00;;;17.72;50.24;101708.84;5046646;22;20501;-71
2022/06/03 06:09:29;;;;;;;4.77;4.23;;;17.40;1.00;;;17.93;51.44;101714.91;5023923;28;20538;-74
2022/06/03 06:12:27;;;;;;;4.80;3.90;;;17.60;1.00;;;18.02;49.41;101708.03;5026734;28;20636;-72
2022/06/03 06:15:31;;;;;;;2.80;2.37;;;17.70;1.00;;;18.13;48.06;101701.78;5037484;28;20868;-72
2022/06/03 06:18:15;;;;;;;2.80;2.50;;;17.80;1.00;;;17.95;48.06;101701.81;5029542;28;20492;-72
2022/06/03 06:21:06;;;;;;;3.93;3.53;;;17.60;1.00;;;17.92;48.72;101714.06;5057839;22;20473;-69
2022/06/03 06:23:50;;;;;;;4.73;2.80;;;17.60;1.00;;;18.07;48.03;101708.16;5069978;28;20417;-69
2022/06/03 06:26:58;;;;;;;3.30;2.60;;;17.70;1.00;;;18.09;48.66;101709.63;5050356;28;20452;-69
2022/06/03 06:30:22;;;;;;;3.10;2.77;;;17.70;1.00;;;18.34;48.39;101706.75;5041499;28;20537;-71
2022/06/03 06:33:35;;;;;;;3.93;3.30;;;18.10;1.00;;;18.14;47.51;101704.28;5036846;28;20476;-71
2022/06/03 06:36:54;;;;;;;2.97;2.70;;;17.90;1.00;;;18.40;47.11;101694.81;5035431;28;20473;-71
2022/06/03 06:40:01;;;;;;;4.93;2.47;;;18.00;1.00;;;18.50;47.36;101686.03;5034169;28;20466;-70
2022/06/03 06:42:48;;;;;;;2.20;1.87;;;18.20;1.00;;;18.49;46.54;101687.13;5038926;28;20872;-70
2022/06/03 06:45:35;;;;;;;3.40;2.60;;;18.30;1.00;;;18.52;46.58;101690.22;5035929;28;20419;-68
2022/06/03 06:48:20;;;;;;;3.00;1.90;;;18.30;1.00;;;18.73;46.04;101688.84;5041084;28;20447;-69
2022/06/03 06:50:57;;;;;;;3.03;2.03;;;18.40;1.00;;;18.83;45.56;101685.53;5037998;28;20446;-70
2022/06/03 06:53:38;;;;;;;3.10;2.30;;;18.50;1.00;;;18.93;45.70;101677.50;5034461;28;20406;-71
2022/06/03 06:56:22;;;;;;;6.30;3.43;;;18.60;1.00;;;19.22;45.74;101681.22;5041361;28;20441;-71
2022/06/03 06:59:00;;;;;;;3.20;2.77;;;18.80;1.00;;;19.16;44.79;101682.16;5040821;28;20417;-71
2022/06/03 07:01:36;;;;;;;9.37;2.47;;;18.90;1.00;;;19.27;44.94;101684.88;5040394;28;20931;-70
2022/06/03 07:04:11;;;;;;;2.83;1.83;;;19.00;1.00;;;19.31;44.91;101680.63;5040203;28;20923;-69
2022/06/03 07:06:48;;;;;;;2.37;2.17;;;19.10;1.00;;;19.55;44.10;101681.44;5039228;28;20479;-70
2022/06/03 07:09:41;;;;;;;2.20;1.80;;;19.20;1.00;;;19.74;44.02;101693.06;5042852;28;20455;-70
2022/06/03 07:12:16;;;;;;;2.20;1.93;;;19.30;1.00;;;19.62;43.49;101682.09;5039656;28;20442;-70
2022/06/03 07:15:01;;;;;;;2.33;1.93;;;19.30;1.00;;;19.66;43.92;101685.19;5039999;28;20502;-70
2022/06/03 07:20:51;;;;;;;3.10;2.50;;;19.40;1.00;;;19.65;43.62;101669.81;5039249;28;20447;-69
2022/06/03 07:23:34;;;;;;;3.30;2.50;;;19.40;1.00;;;19.87;42.45;101662.56;5032781;28;20443;-69
2022/06/03 07:26:34;;;;;;;2.40;2.20;;;19.60;1.00;;;19.87;42.79;101670.81;5040512;28;20441;-70
2022/06/03 07:29:14;;;;;;;2.87;2.60;;;19.70;1.00;;;19.93;42.95;101667.09;5038951;28;20492;-70
2022/06/03 07:31:54;;;;;;;4.07;2.50;;;19.80;1.00;;;20.01;43.21;101663.94;5038654;28;20442;-69
2022/06/03 07:34:30;;;;;;;2.17;1.70;;;19.90;1.00;;;19.94;41.95;101672.31;5033611;28;20495;-70
2022/06/03 07:37:07;;;;;;;3.00;1.93;;;19.70;1.00;;;20.04;41.41;101674.44;5035000;28;20979;-70
2022/06/03 07:39:49;;;;;;;3.50;3.17;;;19.80;1.00;;;20.12;41.58;101663.06;5034941;28;20442;-70
2022/06/03 07:42:32;;;;;;;4.33;2.90;;;19.80;1.00;;;20.02;41.62;101657.38;5041132;28;20762;-70
2022/06/03 07:45:35;;;;;;;4.60;1.90;;;20.00;1.00;;;19.90;41.50;101662.06;5040864;28;20778;-70
2022/06/03 07:48:12;;;;;;;3.60;2.17;;;19.80;1.00;;;20.16;41.63;101666.97;5035908;28;20847;-70
2022/06/03 07:50:55;;;;;;;2.50;2.10;;;19.90;1.00;;;20.29;40.85;101666.66;5032614;28;20460;-69
2022/06/03 07:53:42;;;;;;;3.03;2.10;;;20.00;1.00;;;20.26;40.81;101669.91;5032740;28;20458;-69
2022/06/03 07:56:12;;;;;;;2.20;1.97;;;20.00;1.00;;;20.36;40.90;101661.03;5037130;28;20434;-70
2022/06/03 07:58:40;;;;;;;3.00;2.47;;;20.20;1.00;;;20.61;40.83;101646.88;5034835;28;20511;-72
2022/06/03 08:01:23;;;;;;;2.40;1.90;;;20.20;1.00;;;20.57;41.04;101659.47;5035458;28;20982;-69
2022/06/03 08:03:54;;;;;;;2.40;2.20;;;20.30;1.00;;;20.24;40.34;101655.56;5036808;28;20448;-69
2022/06/03 08:10:56;;;;;;;3.10;1.80;;;20.30;1.00;;;20.25;40.46;101649.00;5035005;28;20406;-69
2022/06/03 08:12:11;;;;;;;3.33;3.03;;;20.20;1.00;;;20.44;40.59;101655.13;5038527;28;20642;-69
2022/06/03 08:14:40;;;;;;;4.03;2.23;;;20.20;1.00;;;20.77;40.04;101648.78;5027479;28;20540;-69
2022/06/03 08:17:10;;;;;;;2.90;2.70;;;20.40;1.00;;;20.95;39.64;101654.03;5037087;28;20470;-70
2022/06/03 08:19:43;;;;;;;2.53;2.13;;;20.70;1.00;;;21.03;39.26;101641.72;5032596;28;20467;-70
2022/06/03 08:22:18;;;;;;;3.20;2.20;;;20.70;1.00;;;20.93;38.87;101649.84;5037481;28;20435;-69
2022/06/03 08:24:56;;;;;;;3.87;2.17;;;20.80;1.00;;;20.70;39.47;101650.88;5036084;28;20443;-70
2022/06/03 08:27:33;;;;;;;2.47;1.90;;;20.60;1.00;;;20.86;39.80;101646.44;5030272;28;20411;-69
2022/06/03 08:30:07;;;;;;;3.33;1.97;;;20.60;1.00;;;20.88;40.09;101647.84;5028798;28;20437;-68
2022/06/03 08:32:44;;;;;;;3.33;2.17;;;20.70;1.00;;;21.05;38.83;101640.41;5028509;28;20462;-68
2022/06/03 08:35:20;;;;;;;2.70;2.10;;;20.70;1.00;;;20.87;39.22;101651.69;5027508;28;20482;-68
2022/06/03 08:37:54;;;;;;;2.77;1.90;;;20.80;1.00;;;20.85;39.15;101644.78;5029054;28;20919;-67
2022/06/03 08:40:35;;;;;;;2.90;2.57;;;20.70;1.00;;;20.78;39.01;101647.69;5031827;28;20496;-68
2022/06/03 08:43:19;;;;;;;2.47;2.27;;;20.60;1.00;;;20.98;39.15;101648.00;5035696;28;20411;-67
2022/06/03 08:46:00;;;;;;;2.50;2.30;;;20.60;1.00;;;21.19;38.28;101647.25;5043231;28;20463;-68
2022/06/03 08:48:35;;;;;;;2.23;1.97;;;20.90;1.00;;;21.38;39.19;101649.69;5041400;28;20502;-68
2022/06/03 08:51:15;;;;;;;3.43;2.90;;;21.00;1.00;;;21.82;37.74;101647.75;5041687;28;20463;-67
2022/06/03 08:53:54;;;;;;;2.63;2.17;;;21.40;1.00;;;21.84;37.17;101631.75;5033783;28;20503;-68
2022/06/03 08:56:26;;;;;;;2.97;2.50;;;21.60;1.00;;;21.76;37.26;101627.56;5035215;28;20441;-67
2022/06/03 08:59:06;;;;;;;3.83;2.57;;;21.50;1.00;;;21.24;37.90;101632.72;5033889;28;20448;-69
2022/06/03 09:01:40;;;;;;;3.53;3.13;;;21.40;1.00;;;21.18;38.14;101634.56;5038272;28;20417;-68
2022/06/03 09:04:22;;;;;;;3.50;2.83;;;21.20;1.00;;;21.42;37.74;101629.63;5030925;28;20463;-67
2022/06/03 09:07:06;;;;;;;3.50;2.80;;;21.20;1.00;;;21.17;38.05;101632.06;4984870;28;20804;-67
2022/06/03 09:09:46;;;;;;;3.27;2.40;;;21.10;1.00;;;21.45;36.94;101620.03;5008090;28;20452;-67
2022/06/03 09:12:37;;;;;;;3.33;2.70;;;21.30;1.00;;;21.56;37.52;101624.56;5009005;28;20800;-67
2022/06/03 09:15:12;;;;;;;2.60;2.13;;;21.30;1.00;;;21.66;36.99;101628.28;5022202;28;20527;-66
2022/06/03 09:17:49;;;;;;;2.30;1.90;;;21.30;1.00;;;21.74;36.69;101629.72;5010515;28;20455;-67
2022/06/03 09:20:25;;;;;;;3.23;2.70;;;21.40;1.00;;;22.06;36.11;101627.91;5012017;28;20451;-69
2022/06/03 09:23:04;;;;;;;3.27;2.47;;;21.70;1.00;;;22.29;35.26;101625.91;5015238;28;20411;-66
2022/06/03 09:25:41;;;;;;;2.73;2.43;;;22.00;1.00;;;22.20;35.91;101621.97;5008148;28;20449;-67
2022/06/03 09:28:20;;;;;;;3.60;2.67;;;21.90;1.00;;;22.24;35.56;101614.84;5006220;28;20498;-68
2022/06/03 09:30:51;;;;;;;3.07;2.60;;;22.00;1.00;;;22.16;35.55;101609.81;5011194;28;20431;-68
2022/06/03 09:33:23;;;;;;;4.57;2.67;;;21.90;1.00;;;21.69;35.33;101602.97;5014989;28;20531;-68
2022/06/03 09:35:56;;;;;;;2.77;2.30;;;21.80;1.00;;;21.64;35.98;101604.81;5014384;28;20470;-67
2022/06/03 09:38:35;;;;;;;2.43;2.10;;;21.60;1.00;;;21.84;35.83;101596.78;5013408;28;20460;-68
2022/06/03 09:41:05;;;;;;;2.40;2.20;;;21.60;1.00;;;21.99;35.54;101594.22;5013695;28;20533;-68
2022/06/03 09:43:39;;;;;;;6.43;3.10;;;21.60;1.00;;;22.25;35.16;101594.44;5015106;28;20470;-68
2022/06/03 09:46:13;;;;;;;2.17;1.87;;;21.90;1.00;;;22.36;35.37;101599.78;5011079;28;20521;-68
2022/06/03 09:48:44;;;;;;;2.60;2.13;;;22.00;1.00;;;22.64;35.07;101584.00;5014267;28;20514;-69
2022/06/03 09:51:24;;;;;;;2.90;1.70;;;22.30;1.00;;;22.93;33.57;101580.63;5013892;28;20465;-67
2022/06/03 09:53:54;;;;;;;3.40;1.83;;;22.50;1.00;;;22.73;33.71;101583.25;5009393;28;20447;-68
2022/06/03 09:56:29;;;;;;;2.00;1.60;;;22.50;1.00;;;22.64;33.58;101584.81;5012161;28;20411;-68
2022/06/03 09:59:02;;;;;;;2.43;1.97;;;22.40;1.00;;;22.63;34.17;101587.84;5013379;28;20443;-68
2022/06/03 10:01:32;;;;;;;2.47;2.00;;;22.50;1.00;;;22.62;34.25;101581.47;5013595;28;20512;-67
2022/06/03 10:04:06;;;;;;;3.80;2.70;;;22.50;1.00;;;22.50;33.92;101567.91;5007285;28;20447;-68
2022/06/03 10:06:46;;;;;;;2.77;2.10;;;22.50;1.00;;;22.57;34.10;101572.34;5011140;28;20875;-67
2022/06/03 10:17:50;;;;;;;3.20;2.83;;;22.60;1.00;;;22.80;35.88;101572.78;5009328;28;20441;-67
2022/06/03 10:20:21;;;;;;;2.40;2.20;;;22.50;1.00;;;22.54;35.58;101559.94;5006061;28;20542;-67
2022/06/03 10:22:49;;;;;;;2.90;2.37;;;22.40;1.00;;;22.32;36.05;101559.19;5006308;28;20492;-71
2022/06/03 10:25:20;;;;;;;3.00;2.40;;;22.30;1.00;;;22.37;36.22;101559.22;5007562;28;20422;-70
2022/06/03 10:27:49;;;;;;;3.50;2.40;;;22.30;1.00;;;22.64;35.63;101550.88;5005066;28;20419;-70
2022/06/03 10:30:27;;;;;;;2.97;2.43;;;22.40;1.00;;;22.65;34.88;101558.91;5004604;28;21011;-71
2022/06/03 10:32:56;;;;;;;3.20;2.43;;;22.50;1.00;;;22.70;34.67;101555.34;5010549;28;20503;-72
2022/06/03 10:35:28;;;;;;;3.33;2.77;;;22.50;1.00;;;22.87;34.56;101556.84;5011508;28;20436;-70
2022/06/03 10:38:03;;;;;;;3.17;2.90;;;22.70;1.00;;;22.92;35.15;101559.63;5010560;28;20415;-68
2022/06/03 10:40:39;;;;;;;3.27;2.23;;;22.70;1.00;;;22.89;34.73;101560.19;5015969;28;20490;-68
2022/06/03 10:43:08;;;;;;;3.77;2.60;;;22.70;1.00;;;22.60;35.46;101556.09;5015486;28;20436;-68
2022/06/03 10:45:40;;;;;;;2.93;2.73;;;22.50;1.00;;;22.80;34.42;101549.91;5015352;28;20444;-68
2022/06/03 10:48:25;;;;;;;2.53;2.33;;;22.50;1.00;;;22.86;34.91;101546.06;5006880;28;20420;-68
2022/06/03 10:51:12;;;;;;;3.33;3.00;;;22.50;1.00;;;23.20;34.95;101538.22;5013019;28;20497;-67
2022/06/03 11:02:16;;;;;;;2.83;2.40;;;23.10;1.00;;;23.87;34.28;101524.28;5012022;28;20961;-68
2022/06/03 11:04:45;;;;;;;3.23;2.93;;;23.50;1.00;;;24.22;33.03;101534.56;5014802;28;20448;-69
2022/06/03 11:07:27;;;;;;;3.20;2.90;;;23.70;1.00;;;24.18;32.12;101534.28;5014659;28;20421;-70
2022/06/03 11:09:59;;;;;;;2.73;2.53;;;23.90;1.00;;;23.93;32.86;101525.13;5014928;28;20515;-68
2022/06/03 11:12:31;;;;;;;2.93;2.63;;;23.70;1.00;;;24.09;32.65;101524.03;5008203;28;20495;-69
2022/06/03 11:15:00;;;;;;;2.27;1.83;;;23.80;1.00;;;24.09;33.01;101522.09;5011110;28;20996;-68
2022/06/03 11:17:37;;;;;;;2.83;2.47;;;23.80;1.00;;;24.06;33.05;101519.88;5014737;28;20480;-68
2022/06/03 11:20:39;;;;;;;3.50;3.20;;;23.70;1.00;;;24.10;33.77;101509.09;5015970;28;20891;-68
2022/06/03 11:23:10;;;;;;;2.40;1.83;;;23.80;1.00;;;23.96;33.50;101510.78;5021029;28;20445;-68
2022/06/03 11:25:43;;;;;;;2.57;2.37;;;23.80;1.00;;;23.69;33.68;101514.63;5016850;28;20467;-70
2022/06/03 11:28:19;;;;;;;3.60;2.40;;;23.60;1.00;;;23.88;33.60;101501.09;5025293;28;20420;-68
2022/06/03 11:31:05;;;;;;;2.70;2.50;;;23.70;1.00;;;24.08;33.80;101497.50;5025953;28;20471;-68
2022/06/03 11:33:43;;;;;;;2.67;2.10;;;23.80;1.00;;;24.31;32.80;101491.41;5027816;28;20443;-69
2022/06/03 11:36:18;;;;;;;3.33;2.50;;;23.90;1.00;;;24.39;32.95;101479.78;5024764;28;20743;-68
2022/06/03 11:38:54;;;;;;;3.40;3.10;;;23.90;1.00;;;24.11;33.06;101478.41;5019955;28;21011;-68
2022/06/03 11:41:31;;;;;;;2.90;2.27;;;24.00;1.00;;;23.91;33.72;101477.59;5017099;28;20965;-69
2022/06/03 11:44:10;;;;;;;3.17;2.43;;;23.80;1.00;;;23.81;33.32;101462.69;5015387;28;20461;-71
2022/06/03 11:46:47;;;;;;;2.90;2.70;;;23.70;1.00;;;23.78;33.66;101468.75;5020145;28;20480;-69
2022/06/03 11:49:20;;;;;;;2.97;2.20;;;23.70;1.00;;;23.80;34.00;101465.72;5014972;28;20491;-69
2022/06/03 11:51:51;;;;;;;3.00;2.70;;;23.60;1.00;;;23.91;33.89;101461.03;5032545;28;20451;-68
2022/06/03 11:54:25;;;;;;;2.63;2.30;;;23.60;1.00;;;23.87;33.59;101451.63;5018533;28;20504;-68
2022/06/03 11:56:55;;;;;;;2.30;2.10;;;23.70;1.00;;;23.78;34.02;101443.88;5016037;28;20415;-68
2022/06/03 11:59:35;;;;;;;2.30;1.80;;;23.70;1.00;;;23.97;33.86;101443.28;5013824;28;20531;-69
2022/06/03 12:02:18;;;;;;;2.70;2.50;;;23.70;1.00;;;23.87;33.83;101440.56;5011154;28;20441;-68
2022/06/03 12:04:54;;;;;;;2.90;1.77;;;23.50;1.00;;;24.32;33.29;101434.97;5007374;28;20766;-68
2022/06/03 12:07:41;;;;;;;3.80;2.30;;;23.80;1.00;;;24.97;33.14;101424.78;5013216;28;20419;-69
2022/06/03 12:10:22;;;;;;;3.60;2.87;;;24.30;1.00;;;25.29;32.40;101427.06;5013014;28;20464;-67
2022/06/03 12:13:15;;;;;;;2.40;2.20;;;24.70;1.00;;;25.65;31.86;101430.44;5010206;28;20411;-68
2022/06/03 12:16:00;;;;;;;2.93;2.40;;;25.10;1.00;;;25.40;30.41;101432.28;5012205;28;20462;-69
2022/06/03 12:19:03;;;;;;;2.70;2.47;;;25.10;1.00;;;25.66;30.78;101421.03;5011515;28;20427;-70
2022/06/03 12:22:15;;;;;;;2.93;2.17;;;25.10;1.00;;;26.03;29.94;101423.16;5039597;22;20485;-66
2022/06/03 12:24:59;;;;;;;2.67;2.43;;;25.50;1.00;;;26.02;29.56;101414.00;5023116;28;20439;-69
2022/06/03 12:27:33;;;;;;;3.97;3.63;;;25.60;1.00;;;25.98;29.84;101418.50;5025170;28;20471;-68
2022/06/03 12:30:37;;;;;;;3.30;2.40;;;25.60;1.00;;;26.01;29.71;101422.63;5017314;28;20466;-68
2022/06/03 12:33:21;;;;;;;2.37;2.17;;;25.70;1.00;;;26.08;29.16;101406.47;5006515;28;20441;-67
2022/06/03 12:35:59;;;;;;;2.97;2.67;;;25.80;1.00;;;25.80;29.21;101406.16;5012902;28;20480;-66